createdAt,value
2018-04-10T00:00:59.513Z,100
2018-04-10T00:02:01.900Z,100
2018-04-10T00:03:04.280Z,100
2018-04-10T00:04:06.675Z,100
2018-04-10T00:05:09.056Z,100
2018-04-10T00:06:11.450Z,100
2018-04-10T00:07:14.117Z,100
2018-04-10T00:08:16.497Z,100
2018-04-10T00:09:18.875Z,100
2018-04-10T00:10:21.260Z,100
2018-04-10T00:11:23.646Z,100
2018-04-10T00:12:26.323Z,100
2018-04-10T00:13:28.703Z,100
2018-04-10T00:14:31.368Z,100
2018-04-10T00:15:33.761Z,100
2018-04-10T00:16:36.440Z,100
2018-04-10T00:17:39.207Z,100
2018-04-10T00:18:41.604Z,100
2018-04-10T00:19:43.989Z,100
2018-04-10T00:20:46.376Z,100
2018-04-10T00:21:49.145Z,100
2018-04-10T00:22:51.540Z,100
2018-04-10T00:23:54.213Z,100
2018-04-10T00:24:57.269Z,100
2018-04-10T00:25:59.660Z,100
2018-04-10T00:27:02.044Z,100
2018-04-10T00:28:04.738Z,100
2018-04-10T00:29:07.126Z,100
2018-04-10T00:30:09.514Z,100
2018-04-10T00:31:11.899Z,100
2018-04-10T00:32:14.950Z,100
2018-04-10T00:33:17.346Z,100
2018-04-10T00:34:19.732Z,100
2018-04-10T00:35:22.109Z,100
2018-04-10T00:36:24.769Z,100
2018-04-10T00:37:27.156Z,100
2018-04-10T00:38:29.546Z,100
2018-04-10T00:39:31.924Z,100
2018-04-10T00:40:34.313Z,100
2018-04-10T00:41:36.979Z,100
2018-04-10T00:42:39.375Z,100
2018-04-10T00:43:42.044Z,100
2018-04-10T00:44:44.419Z,100
2018-04-10T00:45:46.806Z,100
2018-04-10T00:46:49.201Z,100
2018-04-10T00:47:51.587Z,100
2018-04-10T00:48:53.975Z,100
2018-04-10T00:49:56.353Z,100
2018-04-10T00:50:58.740Z,100
2018-04-10T00:52:01.401Z,100
2018-04-10T00:53:03.796Z,100
2018-04-10T00:54:06.176Z,100
2018-04-10T00:55:08.566Z,100
2018-04-10T00:56:11.336Z,100
2018-04-10T00:57:13.733Z,100
2018-04-10T00:58:16.113Z,100
2018-04-10T00:59:18.773Z,100
2018-04-10T01:00:21.159Z,100
2018-04-10T01:01:23.830Z,100
2018-04-10T01:02:26.216Z,100
2018-04-10T01:03:28.606Z,100
2018-04-10T01:04:31.277Z,100
2018-04-10T01:05:33.652Z,100
2018-04-10T01:06:36.045Z,100
2018-04-10T01:07:38.430Z,100
2018-04-10T01:08:40.802Z,100
2018-04-10T01:09:43.192Z,100
2018-04-10T01:10:45.590Z,100
2018-04-10T01:11:47.971Z,100
2018-04-10T01:12:50.369Z,100
2018-04-10T01:13:52.753Z,100
2018-04-10T01:14:55.137Z,100
2018-04-10T01:15:57.533Z,100
2018-04-10T01:16:59.917Z,100
2018-04-10T01:18:02.686Z,100
2018-04-10T01:19:05.077Z,100
2018-04-10T01:20:07.463Z,100
2018-04-10T01:21:09.854Z,100
2018-04-10T01:22:12.243Z,100
2018-04-10T01:23:14.918Z,100
2018-04-10T01:24:17.307Z,100
2018-04-10T01:25:19.684Z,100
2018-04-10T01:26:22.355Z,100
2018-04-10T01:27:24.741Z,100
2018-04-10T01:28:27.122Z,100
2018-04-10T01:29:29.503Z,100
2018-04-10T01:30:31.877Z,100
2018-04-10T01:31:34.261Z,100
2018-04-10T01:32:36.712Z,100
2018-04-10T01:33:39.038Z,100
2018-04-10T01:34:41.420Z,100
2018-04-10T01:35:43.811Z,100
2018-04-10T01:36:46.876Z,100
2018-04-10T01:37:49.253Z,100
2018-04-10T01:38:51.647Z,100
2018-04-10T01:39:54.326Z,100
2018-04-10T01:40:56.721Z,100
2018-04-10T01:41:59.387Z,100
2018-04-10T01:43:01.761Z,100
2018-04-10T01:44:04.200Z,100
2018-04-10T01:45:06.859Z,100
2018-04-10T01:46:09.239Z,100
2018-04-10T01:47:11.629Z,100
2018-04-10T01:48:14.021Z,100
2018-04-10T01:49:16.401Z,100
2018-04-10T01:50:18.792Z,100
2018-04-10T01:51:21.460Z,100
2018-04-10T01:52:23.849Z,100
2018-04-10T01:53:26.236Z,100
2018-04-10T01:54:28.622Z,100
2018-04-10T01:55:31.275Z,100
2018-04-10T01:56:33.671Z,100
2018-04-10T01:57:36.339Z,100
2018-04-10T01:58:39.001Z,100
2018-04-10T01:59:41.393Z,100
2018-04-10T02:00:43.782Z,100
2018-04-10T02:01:46.171Z,100
2018-04-10T02:02:48.557Z,100
2018-04-10T02:03:50.946Z,100
2018-04-10T02:04:53.331Z,100
2018-04-10T02:05:55.725Z,100
2018-04-10T02:06:58.492Z,100
2018-04-10T02:08:00.867Z,100
2018-04-10T02:09:03.259Z,100
2018-04-10T02:14:07.830Z,100
2018-04-10T02:15:10.207Z,100
2018-04-10T02:16:12.934Z,100
2018-04-10T02:17:15.283Z,100
2018-04-10T02:18:17.962Z,100
2018-04-10T02:19:20.347Z,100
2018-04-10T02:20:22.734Z,100
2018-04-10T02:21:25.434Z,100
2018-04-10T02:22:28.389Z,100
2018-04-10T02:23:30.767Z,100
2018-04-10T02:24:33.165Z,100
2018-04-10T02:25:35.822Z,100
2018-04-10T02:26:38.488Z,100
2018-04-10T02:27:40.873Z,100
2018-04-10T02:28:43.263Z,100
2018-04-10T02:29:45.647Z,100
2018-04-10T02:30:48.423Z,100
2018-04-10T02:31:51.085Z,100
2018-04-10T02:32:53.756Z,100
2018-04-10T02:33:56.815Z,100
2018-04-10T02:34:59.199Z,100
2018-04-10T02:36:01.736Z,100
2018-04-10T02:37:04.130Z,100
2018-04-10T02:38:06.511Z,100
2018-04-10T02:39:09.174Z,100
2018-04-10T02:40:11.550Z,100
2018-04-10T02:41:13.939Z,100
2018-04-10T02:42:16.313Z,100
2018-04-10T02:43:18.990Z,100
2018-04-10T02:44:21.362Z,100
2018-04-10T02:45:24.032Z,100
2018-04-10T02:46:26.422Z,100
2018-04-10T02:47:29.088Z,100
2018-04-10T02:48:32.137Z,100
2018-04-10T02:49:34.522Z,100
2018-04-10T02:50:36.906Z,100
2018-04-10T02:51:39.292Z,100
2018-04-10T02:52:41.684Z,100
2018-04-10T02:53:44.453Z,100
2018-04-10T02:54:47.124Z,100
2018-04-10T02:55:49.512Z,100
2018-04-10T02:56:51.910Z,100
2018-04-10T02:57:54.285Z,100
2018-04-10T02:58:56.669Z,100
2018-04-10T02:59:59.046Z,100
2018-04-10T03:01:01.812Z,100
2018-04-10T03:02:04.193Z,100
2018-04-10T03:03:06.579Z,100
2018-04-10T03:04:08.962Z,100
2018-04-10T03:05:11.354Z,100
2018-04-10T03:06:14.020Z,100
2018-04-10T03:07:16.694Z,100
2018-04-10T03:08:19.357Z,100
2018-04-10T03:09:21.750Z,100
2018-04-10T03:10:24.794Z,100
2018-04-10T03:11:27.458Z,100
2018-04-10T03:12:29.856Z,100
2018-04-10T03:13:32.232Z,100
2018-04-10T03:14:34.890Z,100
2018-04-10T03:15:37.268Z,100
2018-04-10T03:16:39.923Z,100
2018-04-10T03:17:42.316Z,100
2018-04-10T03:18:44.698Z,100
2018-04-10T03:19:47.074Z,100
2018-04-10T03:20:49.926Z,100
2018-04-10T03:21:52.318Z,100
2018-04-10T03:22:54.695Z,100
2018-04-10T03:23:57.085Z,100
2018-04-10T03:24:59.471Z,100
2018-04-10T03:26:01.858Z,100
2018-04-10T03:27:04.241Z,100
2018-04-10T03:28:06.623Z,100
2018-04-10T03:29:09.561Z,100
2018-04-10T03:30:11.955Z,100
2018-04-10T03:31:14.334Z,100
2018-04-10T03:32:16.717Z,100
2018-04-10T03:33:19.100Z,100
2018-04-10T03:34:21.495Z,100
2018-04-10T03:35:24.157Z,100
2018-04-10T03:36:26.538Z,100
2018-04-10T03:37:28.924Z,100
2018-04-10T03:38:31.610Z,100
2018-04-10T03:39:33.992Z,100
2018-04-10T03:40:36.375Z,100
2018-04-10T03:41:39.029Z,100
2018-04-10T03:42:41.416Z,100
2018-04-10T03:43:43.803Z,100
2018-04-10T03:44:46.181Z,100
2018-04-10T03:45:48.571Z,100
2018-04-10T03:46:50.957Z,100
2018-04-10T03:47:53.625Z,100
2018-04-10T03:48:56.018Z,100
2018-04-10T03:49:58.676Z,100
2018-04-10T03:51:01.051Z,100
2018-04-10T03:52:03.440Z,100
2018-04-10T03:53:06.112Z,100
2018-04-10T03:54:08.492Z,100
2018-04-10T03:55:11.162Z,100
2018-04-10T03:56:13.832Z,100
2018-04-10T03:57:16.207Z,100
2018-04-10T03:58:18.606Z,100
2018-04-10T03:59:20.985Z,100
2018-04-10T04:00:23.362Z,100
2018-04-10T04:01:25.745Z,100
2018-04-10T04:02:28.131Z,100
2018-04-10T04:03:30.510Z,100
2018-04-10T04:04:32.894Z,100
2018-04-10T04:05:35.268Z,100
2018-04-10T04:06:37.658Z,100
2018-04-10T04:07:40.049Z,100
2018-04-10T04:08:42.435Z,100
2018-04-10T04:09:44.815Z,100
2018-04-10T04:10:47.197Z,100
2018-04-10T04:11:49.577Z,100
2018-04-10T04:12:51.968Z,100
2018-04-10T04:13:54.389Z,100
2018-04-10T04:14:56.720Z,100
2018-04-10T04:15:59.111Z,100
2018-04-10T04:17:01.802Z,100
2018-04-10T04:18:04.469Z,100
2018-04-10T04:19:06.884Z,100
2018-04-10T04:20:09.248Z,100
2018-04-10T04:21:11.622Z,100
2018-04-10T04:22:13.991Z,100
2018-04-10T04:23:16.760Z,100
2018-04-10T04:24:19.143Z,100
2018-04-10T04:25:21.525Z,100
2018-04-10T04:26:23.904Z,100
2018-04-10T04:27:26.287Z,100
2018-04-10T04:28:28.674Z,100
2018-04-10T04:29:31.066Z,100
2018-04-10T04:30:33.727Z,100
2018-04-10T04:31:36.112Z,100
2018-04-10T04:32:38.487Z,100
2018-04-10T04:33:40.882Z,100
2018-04-10T04:34:43.263Z,100
2018-04-10T04:35:45.656Z,100
2018-04-10T04:36:48.030Z,100
2018-04-10T04:37:50.412Z,100
2018-04-10T04:38:52.789Z,100
2018-04-10T04:39:55.166Z,100
2018-04-10T04:40:57.539Z,100
2018-04-10T04:41:59.930Z,100
2018-04-10T04:43:02.303Z,100
2018-04-10T04:44:04.687Z,100
2018-04-10T04:45:07.074Z,100
2018-04-10T04:46:09.451Z,100
2018-04-10T04:47:12.224Z,100
2018-04-10T04:48:14.900Z,100
2018-04-10T04:49:17.273Z,100
2018-04-10T04:50:19.938Z,100
2018-04-10T04:51:22.309Z,100
2018-04-10T04:52:24.970Z,100
2018-04-10T04:53:27.697Z,100
2018-04-10T04:54:30.031Z,100
2018-04-10T04:55:32.690Z,100
2018-04-10T04:56:35.369Z,100
2018-04-10T04:57:37.750Z,100
2018-04-10T04:58:40.140Z,100
2018-04-10T04:59:42.802Z,100
2018-04-10T05:00:45.180Z,100
2018-04-10T05:01:47.565Z,100
2018-04-10T05:02:49.962Z,100
2018-04-10T05:03:52.332Z,100
2018-04-10T05:04:55.051Z,100
2018-04-10T05:05:57.435Z,100
2018-04-10T05:07:00.478Z,100
2018-04-10T05:08:02.868Z,100
2018-04-10T05:09:05.251Z,100
2018-04-10T05:10:07.637Z,100
2018-04-10T05:11:10.018Z,100
2018-04-10T05:12:12.403Z,100
2018-04-10T05:13:14.788Z,100
2018-04-10T05:14:17.183Z,100
2018-04-10T05:15:19.838Z,100
2018-04-10T05:16:22.214Z,100
2018-04-10T05:17:24.596Z,100
2018-04-10T05:18:26.983Z,100
2018-04-10T05:19:29.353Z,100
2018-04-10T05:20:31.735Z,100
2018-04-10T05:21:34.114Z,100
2018-04-10T05:22:36.784Z,100
2018-04-10T05:23:39.159Z,100
2018-04-10T05:24:41.543Z,100
2018-04-10T05:25:43.927Z,100
2018-04-10T05:26:46.322Z,100
2018-04-10T05:27:48.700Z,100
2018-04-10T05:28:51.079Z,100
2018-04-10T05:29:53.470Z,100
2018-04-10T05:30:55.848Z,100
2018-04-10T05:31:58.512Z,100
2018-04-10T05:33:01.180Z,100
2018-04-10T05:34:03.579Z,100
2018-04-10T05:35:06.156Z,100
2018-04-10T05:36:08.547Z,100
2018-04-10T05:37:11.212Z,100
2018-04-10T05:38:13.862Z,100
2018-04-10T05:39:16.251Z,100
2018-04-10T05:40:18.647Z,100
2018-04-10T05:41:21.018Z,100
2018-04-10T05:42:23.407Z,100
2018-04-10T05:43:25.785Z,100
2018-04-10T05:44:28.167Z,100
2018-04-10T05:45:30.565Z,100
2018-04-10T05:46:32.944Z,100
2018-04-10T05:47:35.604Z,100
2018-04-10T05:48:38.271Z,100
2018-04-10T05:49:41.040Z,100
2018-04-10T05:50:43.424Z,100
2018-04-10T05:51:45.813Z,100
2018-04-10T05:52:48.192Z,100
2018-04-10T05:53:50.586Z,100
2018-04-10T05:54:52.961Z,100
2018-04-10T05:55:55.932Z,100
2018-04-10T05:56:58.699Z,100
2018-04-10T05:58:01.076Z,100
2018-04-10T05:59:03.452Z,100
2018-04-10T06:00:06.534Z,100
2018-04-10T06:01:08.910Z,100
2018-04-10T06:02:11.314Z,100
2018-04-10T06:03:13.695Z,100
2018-04-10T06:04:16.390Z,100
2018-04-10T06:05:18.772Z,100
2018-04-10T06:06:21.151Z,100
2018-04-10T06:07:23.534Z,100
2018-04-10T06:08:25.922Z,100
2018-04-10T06:09:28.300Z,100
2018-04-10T06:10:30.697Z,100
2018-04-10T06:11:33.349Z,100
2018-04-10T06:12:35.729Z,100
2018-04-10T06:13:38.112Z,100
2018-04-10T06:14:40.492Z,100
2018-04-10T06:15:43.256Z,100
2018-04-10T06:16:46.038Z,100
2018-04-10T06:17:48.427Z,100
2018-04-10T06:18:51.202Z,100
2018-04-10T06:19:53.583Z,100
2018-04-10T06:20:56.276Z,100
2018-04-10T06:21:58.667Z,100
2018-04-10T06:23:01.051Z,100
2018-04-10T06:24:03.732Z,100
2018-04-10T06:25:06.109Z,100
2018-04-10T06:26:08.510Z,100
2018-04-10T06:27:10.884Z,100
2018-04-10T06:28:13.262Z,100
2018-04-10T06:29:15.647Z,100
2018-04-10T06:30:18.033Z,100
2018-04-10T06:31:21.000Z,100
2018-04-10T06:32:23.776Z,100
2018-04-10T06:33:26.190Z,100
2018-04-10T06:34:28.582Z,100
2018-04-10T06:35:31.262Z,100
2018-04-10T06:36:33.956Z,100
2018-04-10T06:37:36.336Z,100
2018-04-10T06:38:38.727Z,100
2018-04-10T06:39:41.110Z,100
2018-04-10T06:40:43.498Z,100
2018-04-10T06:41:45.879Z,100
2018-04-10T06:42:48.825Z,100
2018-04-10T06:43:51.215Z,100
2018-04-10T06:44:53.607Z,99
2018-04-10T06:45:55.993Z,99
2018-04-10T06:46:58.661Z,99
2018-04-10T06:48:01.046Z,99
2018-04-10T06:49:03.445Z,98
2018-04-10T06:50:06.109Z,98
2018-04-10T06:51:08.495Z,98
2018-04-10T06:52:10.878Z,98
2018-04-10T06:53:13.264Z,97
2018-04-10T06:54:15.920Z,97
2018-04-10T06:55:18.320Z,96
2018-04-10T06:56:20.703Z,96
2018-04-10T06:57:23.093Z,96
2018-04-10T06:58:25.478Z,95
2018-04-10T06:59:27.857Z,95
2018-04-10T07:00:30.246Z,95
2018-04-10T07:01:32.647Z,94
2018-04-10T07:02:35.025Z,94
2018-04-10T07:03:37.412Z,93
2018-04-10T07:04:39.805Z,93
2018-04-10T07:05:42.482Z,92
2018-04-10T07:06:44.861Z,93
2018-04-10T07:07:47.253Z,92
2018-04-10T07:08:49.907Z,91
2018-04-10T07:09:52.594Z,91
2018-04-10T07:10:54.977Z,91
2018-04-10T07:11:57.354Z,90
2018-04-10T07:13:00.036Z,89
2018-04-10T07:14:02.421Z,89
2018-04-10T07:15:04.810Z,89
2018-04-10T07:16:07.208Z,88
2018-04-10T07:17:09.601Z,87
2018-04-10T07:18:12.609Z,88
2018-04-10T07:19:15.509Z,88
2018-04-10T07:20:17.926Z,87
2018-04-10T07:21:20.525Z,86
2018-04-10T07:22:23.204Z,86
2018-04-10T07:23:25.986Z,86
2018-04-10T07:24:28.696Z,85
2018-04-10T07:25:31.370Z,86
2018-04-10T07:26:33.769Z,85
2018-04-10T07:27:36.440Z,84
2018-04-10T07:28:38.898Z,84
2018-04-10T07:29:41.507Z,84
2018-04-10T07:30:43.947Z,83
2018-04-10T07:31:46.342Z,84
2018-04-10T07:32:48.938Z,84
2018-04-10T07:33:51.916Z,84
2018-04-10T07:34:54.356Z,83
2018-04-10T07:35:57.041Z,83
2018-04-10T07:36:59.437Z,82
2018-04-10T07:38:02.308Z,82
2018-04-10T07:39:04.694Z,81
2018-04-10T07:40:07.093Z,81
2018-04-10T07:41:09.472Z,82
2018-04-10T07:42:11.854Z,81
2018-04-10T07:43:14.246Z,80
2018-04-10T07:44:16.653Z,80
2018-04-10T07:45:19.040Z,79
2018-04-10T07:46:21.432Z,80
2018-04-10T07:47:23.823Z,80
2018-04-10T07:48:26.211Z,79
2018-04-10T07:49:28.991Z,80
2018-04-10T07:50:31.380Z,79
2018-04-10T07:51:33.779Z,79
2018-04-10T07:52:36.180Z,79
2018-04-10T07:53:38.563Z,79
2018-04-10T07:54:41.238Z,80
2018-04-10T07:55:43.633Z,79
2018-04-10T07:56:46.012Z,78
2018-04-10T07:57:48.401Z,77
2018-04-10T07:58:50.778Z,75
2018-04-10T07:59:53.171Z,75
2018-04-10T08:00:55.572Z,74
2018-04-10T08:01:58.240Z,72
2018-04-10T08:03:00.627Z,72
2018-04-10T08:04:03.577Z,72
2018-04-10T08:05:05.965Z,72
2018-04-10T08:06:08.367Z,73
2018-04-10T08:07:10.752Z,73
2018-04-10T08:08:13.135Z,73
2018-04-10T08:09:15.531Z,73
2018-04-10T08:10:17.922Z,74
2018-04-10T08:11:20.317Z,73
2018-04-10T08:12:22.714Z,71
2018-04-10T08:13:25.094Z,70
2018-04-10T08:14:27.486Z,69
2018-04-10T08:15:29.881Z,70
2018-04-10T08:16:32.270Z,70
2018-04-10T08:17:34.650Z,69
2018-04-10T08:18:37.044Z,72
2018-04-10T08:19:39.713Z,68
2018-04-10T08:20:42.102Z,69
2018-04-10T08:21:44.498Z,70
2018-04-10T08:22:46.895Z,70
2018-04-10T08:23:49.852Z,69
2018-04-10T08:24:52.262Z,67
2018-04-10T08:25:54.643Z,65
2018-04-10T08:26:57.036Z,65
2018-04-10T08:27:59.418Z,65
2018-04-10T08:29:01.809Z,66
2018-04-10T08:30:04.202Z,65
2018-04-10T08:31:06.880Z,66
2018-04-10T08:32:09.257Z,64
2018-04-10T08:33:11.648Z,63
2018-04-10T08:34:14.043Z,65
2018-04-10T08:35:16.995Z,64
2018-04-10T08:36:19.389Z,62
2018-04-10T08:37:21.790Z,63
2018-04-10T08:38:24.174Z,63
2018-04-10T08:39:26.584Z,63
2018-04-10T08:40:29.357Z,63
2018-04-10T08:41:31.752Z,62
2018-04-10T08:42:34.139Z,63
2018-04-10T08:43:36.541Z,62
2018-04-10T08:44:38.928Z,62
2018-04-10T08:45:41.316Z,62
2018-04-10T08:46:44.000Z,62
2018-04-10T08:47:46.778Z,60
2018-04-10T08:48:49.184Z,60
2018-04-10T08:49:51.911Z,60
2018-04-10T08:50:54.873Z,61
2018-04-10T08:51:57.550Z,61
2018-04-10T08:52:59.944Z,60
2018-04-10T08:54:02.339Z,60
2018-04-10T08:55:04.726Z,60
2018-04-10T08:56:07.121Z,59
2018-04-10T08:57:09.522Z,59
2018-04-10T08:58:11.930Z,60
2018-04-10T08:59:14.321Z,59
2018-04-10T09:00:16.721Z,59
2018-04-10T09:01:19.393Z,58
2018-04-10T09:02:21.787Z,58
2018-04-10T09:03:24.194Z,58
2018-04-10T09:04:26.587Z,58
2018-04-10T09:05:28.977Z,59
2018-04-10T09:06:31.386Z,57
2018-04-10T09:07:33.786Z,58
2018-04-10T09:08:36.470Z,58
2018-04-10T09:09:38.865Z,57
2018-04-10T09:10:41.260Z,58
2018-04-10T09:11:43.659Z,57
2018-04-10T09:12:46.066Z,57
2018-04-10T09:13:48.840Z,58
2018-04-10T09:14:51.241Z,56
2018-04-10T09:15:53.649Z,55
2018-04-10T09:16:56.050Z,56
2018-04-10T09:17:58.449Z,57
2018-04-10T09:19:00.844Z,56
2018-04-10T09:20:03.244Z,56
2018-04-10T09:21:06.021Z,56
2018-04-10T09:22:08.797Z,56
2018-04-10T09:23:11.873Z,57
2018-04-10T09:24:14.263Z,57
2018-04-10T09:25:16.669Z,56
2018-04-10T09:26:19.356Z,56
2018-04-10T09:27:22.141Z,55
2018-04-10T09:28:24.827Z,57
2018-04-10T09:29:27.230Z,56
2018-04-10T09:30:29.624Z,56
2018-04-10T09:31:32.031Z,56
2018-04-10T09:32:34.440Z,55
2018-04-10T09:33:37.113Z,55
2018-04-10T09:34:39.529Z,55
2018-04-10T09:35:42.221Z,55
2018-04-10T09:36:44.619Z,55
2018-04-10T09:37:47.035Z,55
2018-04-10T09:38:49.420Z,55
2018-04-10T09:39:51.818Z,55
2018-04-10T09:40:54.224Z,54
2018-04-10T09:41:56.625Z,55
2018-04-10T09:42:59.025Z,55
2018-04-10T09:44:02.012Z,55
2018-04-10T09:45:04.688Z,56
2018-04-10T09:46:07.084Z,56
2018-04-10T09:47:09.763Z,56
2018-04-10T09:48:12.165Z,57
2018-04-10T09:49:14.567Z,57
2018-04-10T09:50:17.314Z,56
2018-04-10T09:51:19.714Z,56
2018-04-10T09:52:22.806Z,56
2018-04-10T09:53:25.494Z,57
2018-04-10T09:54:27.900Z,57
2018-04-10T09:55:30.687Z,57
2018-04-10T09:56:33.089Z,58
2018-04-10T09:57:35.501Z,58
2018-04-10T09:58:37.897Z,59
2018-04-10T09:59:40.291Z,58
2018-04-10T10:00:42.693Z,57
2018-04-10T10:01:45.491Z,56
2018-04-10T10:02:47.892Z,56
2018-04-10T10:03:50.311Z,56
2018-04-10T10:04:52.704Z,56
2018-04-10T10:05:55.492Z,57
2018-04-10T10:06:57.900Z,56
2018-04-10T10:08:00.298Z,57
2018-04-10T10:09:02.696Z,57
2018-04-10T10:10:05.383Z,56
2018-04-10T10:11:07.788Z,57
2018-04-10T10:12:10.480Z,57
2018-04-10T10:13:13.160Z,57
2018-04-10T10:14:15.558Z,58
2018-04-10T10:15:17.959Z,59
2018-04-10T10:16:20.646Z,56
2018-04-10T10:17:23.054Z,57
2018-04-10T10:18:25.450Z,56
2018-04-10T10:19:28.244Z,57
2018-04-10T10:20:30.647Z,57
2018-04-10T10:21:33.700Z,57
2018-04-10T10:22:36.392Z,58
2018-04-10T10:23:38.793Z,59
2018-04-10T10:24:41.192Z,59
2018-04-10T10:25:43.597Z,58
2018-04-10T10:26:46.274Z,61
2018-04-10T10:27:48.671Z,63
2018-04-10T10:28:51.364Z,59
2018-04-10T10:29:53.761Z,59
2018-04-10T10:30:56.728Z,60
2018-04-10T10:31:59.132Z,59
2018-04-10T10:33:01.555Z,59
2018-04-10T10:34:04.628Z,60
2018-04-10T10:35:07.029Z,59
2018-04-10T10:36:09.416Z,56
2018-04-10T10:37:11.815Z,57
2018-04-10T10:38:14.214Z,57
2018-04-10T10:39:16.624Z,57
2018-04-10T10:40:19.400Z,58
2018-04-10T10:41:21.804Z,58
2018-04-10T10:42:24.205Z,57
2018-04-10T10:43:26.611Z,58
2018-04-10T10:44:29.004Z,60
2018-04-10T10:45:31.411Z,58
2018-04-10T10:46:33.803Z,59
2018-04-10T10:47:36.196Z,58
2018-04-10T10:48:38.871Z,57
2018-04-10T10:49:41.571Z,57
2018-04-10T10:50:43.974Z,58
2018-04-10T10:51:46.387Z,57
2018-04-10T10:52:48.773Z,57
2018-04-10T10:53:51.180Z,56
2018-04-10T10:54:53.886Z,56
2018-04-10T10:55:56.283Z,56
2018-04-10T10:56:59.237Z,56
2018-04-10T10:58:01.924Z,56
2018-04-10T10:59:04.916Z,56
2018-04-10T11:00:07.311Z,57
2018-04-10T11:01:09.998Z,54
2018-04-10T11:02:12.769Z,57
2018-04-10T11:03:15.469Z,58
2018-04-10T11:04:17.875Z,56
2018-04-10T11:05:20.270Z,55
2018-04-10T11:06:22.673Z,55
2018-04-10T11:07:25.376Z,57
2018-04-10T11:08:28.066Z,56
2018-04-10T11:09:30.459Z,55
2018-04-10T11:10:32.860Z,56
2018-04-10T11:11:35.251Z,56
2018-04-10T11:12:37.649Z,55
2018-04-10T11:13:40.050Z,55
2018-04-10T11:14:42.442Z,56
2018-04-10T11:15:44.840Z,55
2018-04-10T11:16:47.533Z,57
2018-04-10T11:17:49.923Z,56
2018-04-10T11:18:52.992Z,55
2018-04-10T11:19:55.392Z,55
2018-04-10T11:20:57.797Z,55
2018-04-10T11:22:00.199Z,55
2018-04-10T11:23:02.595Z,55
2018-04-10T11:24:05.368Z,55
2018-04-10T11:25:08.557Z,55
2018-04-10T11:26:11.773Z,56
2018-04-10T11:27:14.391Z,55
2018-04-10T11:28:17.069Z,55
2018-04-10T11:29:19.478Z,55
2018-04-10T11:30:21.873Z,55
2018-04-10T11:31:24.275Z,55
2018-04-10T11:32:26.677Z,54
2018-04-10T11:33:29.107Z,54
2018-04-10T11:34:31.524Z,53
2018-04-10T11:35:33.929Z,52
2018-04-10T11:36:36.320Z,53
2018-04-10T11:37:39.305Z,55
2018-04-10T11:38:41.784Z,54
2018-04-10T11:39:44.183Z,54
2018-04-10T11:40:47.105Z,53
2018-04-10T11:41:50.118Z,54
2018-04-10T11:42:52.589Z,53
2018-04-10T11:43:54.994Z,54
2018-04-10T11:44:58.431Z,54
2018-04-10T11:46:01.804Z,54
2018-04-10T11:47:04.948Z,55
2018-04-10T11:48:07.927Z,55
2018-04-10T11:49:10.732Z,54
2018-04-10T11:50:13.123Z,54
2018-04-10T11:51:17.045Z,55
2018-04-10T11:52:19.947Z,55
2018-04-10T11:53:23.454Z,56
2018-04-10T11:54:26.006Z,55
2018-04-10T11:55:28.653Z,53
2018-04-10T11:56:31.767Z,55
2018-04-10T11:57:34.214Z,54
2018-04-10T11:58:36.686Z,53
2018-04-10T11:59:39.511Z,53
2018-04-10T12:00:42.324Z,54
2018-04-10T12:01:44.764Z,53
2018-04-10T12:02:47.390Z,53
2018-04-10T12:03:50.307Z,54
2018-04-10T12:04:53.604Z,54
2018-04-10T12:05:56.027Z,53
2018-04-10T12:06:58.680Z,54
2018-04-10T12:08:01.271Z,56
2018-04-10T12:09:04.325Z,55
2018-04-10T12:10:07.140Z,54
2018-04-10T12:11:10.404Z,53
2018-04-10T12:12:12.919Z,55
2018-04-10T12:13:16.022Z,55
2018-04-10T12:14:18.739Z,54
2018-04-10T12:15:22.056Z,53
2018-04-10T12:16:24.608Z,54
2018-04-10T12:17:27.077Z,54
2018-04-10T12:18:29.861Z,54
2018-04-10T12:19:32.261Z,54
2018-04-10T12:20:34.669Z,54
2018-04-10T12:21:37.065Z,55
2018-04-10T12:22:39.479Z,54
2018-04-10T12:23:41.891Z,54
2018-04-10T12:24:44.709Z,57
2018-04-10T12:25:47.171Z,55
2018-04-10T12:26:50.320Z,53
2018-04-10T12:27:53.296Z,55
2018-04-10T12:28:56.391Z,55
2018-04-10T12:29:59.285Z,54
2018-04-10T12:31:01.714Z,55
2018-04-10T12:32:05.388Z,54
2018-04-10T12:33:08.208Z,55
2018-04-10T12:34:11.162Z,55
2018-04-10T12:35:15.150Z,58
2018-04-10T12:36:18.245Z,56
2018-04-10T12:37:20.974Z,57
2018-04-10T12:38:24.695Z,56
2018-04-10T12:39:27.501Z,56
2018-04-10T12:40:30.125Z,56
2018-04-10T12:41:32.532Z,57
2018-04-10T12:42:35.283Z,55
2018-04-10T12:43:38.638Z,56
2018-04-10T12:44:41.115Z,55
2018-04-10T12:45:43.965Z,57
2018-04-10T12:46:46.682Z,55
2018-04-10T12:47:49.924Z,56
2018-04-10T12:48:52.670Z,55
2018-04-10T12:49:55.278Z,55
2018-04-10T12:50:57.945Z,54
2018-04-10T12:52:01.375Z,55
2018-04-10T12:53:03.781Z,56
2018-04-10T12:54:06.447Z,58
2018-04-10T12:55:08.864Z,60
2018-04-10T12:56:11.299Z,57
2018-04-10T12:57:13.683Z,57
2018-04-10T12:58:16.479Z,55
2018-04-10T12:59:19.506Z,55
2018-04-10T13:00:22.560Z,57
2018-04-10T13:01:27.484Z,57
2018-04-10T13:02:30.176Z,56
2018-04-10T13:03:32.581Z,57
2018-04-10T13:04:35.147Z,57
2018-04-10T13:05:39.955Z,58
2018-04-10T13:06:43.255Z,56
2018-04-10T13:07:46.151Z,56
2018-04-10T13:08:49.201Z,55
2018-04-10T13:09:51.697Z,56
2018-04-10T13:10:54.236Z,56
2018-04-10T13:11:57.560Z,57
2018-04-10T13:13:00.305Z,57
2018-04-10T13:14:05.919Z,56
2018-04-10T13:15:08.627Z,57
2018-04-10T13:16:11.152Z,55
2018-04-10T13:17:13.771Z,55
2018-04-10T13:18:16.710Z,56
2018-04-10T13:19:19.494Z,57
2018-04-10T13:20:24.944Z,56
2018-04-10T13:21:29.097Z,56
2018-04-10T13:22:31.540Z,57
2018-04-10T13:23:34.072Z,59
2018-04-10T13:24:36.557Z,58
2018-04-10T13:25:39.055Z,58
2018-04-10T13:26:42.241Z,59
2018-04-10T13:27:44.700Z,58
2018-04-10T13:28:47.143Z,57
2018-04-10T13:29:50.138Z,59
2018-04-10T13:30:52.814Z,61
2018-04-10T13:31:55.206Z,59
2018-04-10T13:32:57.686Z,58
2018-04-10T13:34:00.298Z,58
2018-04-10T13:35:03.237Z,58
2018-04-10T13:36:05.632Z,60
2018-04-10T13:37:09.034Z,58
2018-04-10T13:38:11.668Z,60
2018-04-10T13:39:14.400Z,59
2018-04-10T13:40:16.795Z,57
2018-04-10T13:41:19.487Z,58
2018-04-10T13:42:21.886Z,58
2018-04-10T13:43:24.282Z,57
2018-04-10T13:44:26.686Z,58
2018-04-10T13:45:29.081Z,57
2018-04-10T13:46:31.480Z,59
2018-04-10T13:47:33.873Z,59
2018-04-10T13:48:36.274Z,58
2018-04-10T13:49:38.691Z,56
2018-04-10T13:50:41.374Z,57
2018-04-10T13:51:43.769Z,59
2018-04-10T13:52:46.177Z,58
2018-04-10T13:53:48.886Z,60
2018-04-10T13:54:51.585Z,58
2018-04-10T13:55:54.268Z,58
2018-04-10T13:56:56.936Z,58
2018-04-10T13:57:59.331Z,58
2018-04-10T13:59:01.733Z,58
2018-04-10T14:00:04.122Z,59
2018-04-10T14:01:06.530Z,58
2018-04-10T14:02:08.939Z,55
2018-04-10T14:03:11.335Z,56
2018-04-10T14:04:13.738Z,58
2018-04-10T14:05:16.138Z,59
2018-04-10T14:06:18.544Z,56
2018-04-10T14:07:20.951Z,58
2018-04-10T14:08:23.340Z,61
2018-04-10T14:09:25.746Z,60
2018-04-10T14:10:28.154Z,59
2018-04-10T14:11:30.558Z,62
2018-04-10T14:12:32.948Z,62
2018-04-10T14:13:35.365Z,64
2018-04-10T14:14:38.035Z,66
2018-04-10T14:15:40.438Z,65
2018-04-10T14:16:42.836Z,64
2018-04-10T14:17:45.620Z,66
2018-04-10T14:18:48.026Z,67
2018-04-10T14:19:50.434Z,65
2018-04-10T14:20:53.105Z,61
2018-04-10T14:21:55.795Z,62
2018-04-10T14:22:58.195Z,62
2018-04-10T14:24:00.592Z,64
2018-04-10T14:25:02.984Z,66
2018-04-10T14:26:05.385Z,63
2018-04-10T14:27:07.779Z,63
2018-04-10T14:28:10.181Z,64
2018-04-10T14:29:12.578Z,63
2018-04-10T14:30:14.987Z,62
2018-04-10T14:31:17.374Z,61
2018-04-10T14:32:19.778Z,61
2018-04-10T14:33:22.468Z,62
2018-04-10T14:34:24.859Z,60
2018-04-10T14:35:27.551Z,63
2018-04-10T14:36:29.948Z,63
2018-04-10T14:37:32.721Z,64
2018-04-10T14:38:35.400Z,61
2018-04-10T14:39:37.793Z,63
2018-04-10T14:40:40.194Z,60
2018-04-10T14:41:42.606Z,62